Terminal Aerodrome Forecast
Issued by NWS

Home | Current Version | Previous Version | Graphics & Text | Print | Product List | Glossary Off
Versions: 1 2 3 4 5 6 7 8 9 10 11 12 13 14 15

000
FTUS43 KGRB 132300
TAFCWA
TAF
KCWA 132339Z 1400/1424 28010G17KT P6SM SCT080
     FM140100 28005KT P6SM SCT080
      TEMPO 1410/1412 BKN060
     FM141200 30010KT P6SM VCSH SCT035 BKN050
      TEMPO 1416/1420 6SM -SHRA OVC030
      AMD LTD TO CLD VIS AND WIND 1403/1411=

USA.gov is the U.S. government's official web portal to all federal, state and local government web resources and services.